Time;durP1;ratioP1;P1;durP2;ratioP2;P2;SDS_P1;SDS_P2;PMS_P1;PMS_P2;Temp;Humidity;BMP_temperature;BMP_pressure;BME280_temperature;BME280_humidity;BME280_pressure;Samples;Min_cycle;Max_cycle;Signal;HPM_P1;HPM_P2
2023/08/27 00:00:27;;;;;;;13.20;6.30;;;;;;;24.88;100.00;99635.22;5588823;31;33880;-68
2023/08/27 00:03:30;;;;;;;14.40;6.05;;;;;;;24.97;100.00;99625.41;5588848;31;34498;-67
2023/08/27 00:06:33;;;;;;;16.95;6.50;;;;;;;24.95;100.00;99630.28;5588876;31;34402;-68
2023/08/27 00:09:37;;;;;;;15.07;7.37;;;;;;;24.86;100.00;99634.66;5589113;31;33731;-67
2023/08/27 00:12:39;;;;;;;22.02;8.10;;;;;;;24.80;100.00;99643.87;5587967;31;33704;-67
2023/08/27 00:15:46;;;;;;;19.12;8.05;;;;;;;24.78;100.00;99646.09;5588610;31;33770;-67
2023/08/27 00:18:48;;;;;;;16.40;7.50;;;;;;;24.76;100.00;99642.81;5588761;31;34450;-67
2023/08/27 00:21:52;;;;;;;22.08;7.70;;;;;;;24.71;100.00;99642.03;5591018;31;33961;-67
2023/08/27 00:24:54;;;;;;;15.82;7.10;;;;;;;24.66;100.00;99640.16;5591055;31;34439;-67
2023/08/27 00:27:57;;;;;;;16.48;6.28;;;;;;;24.63;100.00;99629.88;5591119;31;34454;-67
2023/08/27 00:31:04;;;;;;;16.80;6.62;;;;;;;24.59;100.00;99620.69;5591006;31;33833;-67
2023/08/27 00:34:07;;;;;;;16.00;6.07;;;;;;;24.55;100.00;99627.72;5591280;31;34464;-67
2023/08/27 00:37:09;;;;;;;15.82;6.05;;;;;;;24.57;100.00;99622.84;5591016;31;34469;-67
2023/08/27 00:40:13;;;;;;;11.35;5.80;;;;;;;24.52;100.00;99631.81;5590807;31;33673;-67
2023/08/27 00:43:16;;;;;;;12.52;5.90;;;;;;;24.50;100.00;99630.44;5590850;31;34504;-67
2023/08/27 00:46:19;;;;;;;14.60;6.10;;;;;;;24.53;100.00;99630.72;5590717;31;34447;-67
2023/08/27 00:49:22;;;;;;;15.75;6.32;;;;;;;24.51;100.00;99626.66;5590795;31;33801;-67
2023/08/27 00:52:25;;;;;;;15.25;5.85;;;;;;;24.53;100.00;99619.87;5590971;31;34220;-67
2023/08/27 00:55:28;;;;;;;14.60;6.22;;;;;;;24.49;100.00;99624.25;5590875;31;33853;-67
2023/08/27 00:58:31;;;;;;;16.83;6.10;;;;;;;24.48;100.00;99625.31;5590676;31;34401;-66
2023/08/27 01:01:35;;;;;;;12.18;5.80;;;;;;;24.44;100.00;99612.59;5590674;31;34464;-67
2023/08/27 01:04:38;;;;;;;12.07;5.90;;;;;;;24.44;100.00;99618.03;5590745;31;33775;-67
2023/08/27 01:07:58;;;;;;;15.55;5.78;;;;;;;24.41;100.00;99618.56;5589921;31;33814;-67
2023/08/27 01:11:18;;;;;;;14.38;5.75;;;;;;;24.34;100.00;99616.16;5590971;31;33762;-67
2023/08/27 01:14:22;;;;;;;15.00;5.40;;;;;;;24.35;100.00;99617.75;5590538;31;33673;-68
2023/08/27 01:17:26;;;;;;;21.77;5.95;;;;;;;24.34;100.00;99615.34;5590887;31;33814;-67
2023/08/27 01:20:30;;;;;;;11.27;5.68;;;;;;;24.33;100.00;99621.84;5590595;31;34473;-67
2023/08/27 01:23:34;;;;;;;10.50;5.32;;;;;;;24.30;100.00;99649.53;5589757;31;34352;-67
2023/08/27 01:26:53;;;;;;;14.43;5.90;;;;;;;24.31;100.00;99638.38;5590841;31;33721;-67
2023/08/27 01:30:20;;;;;;;14.68;5.37;;;;;;;24.47;100.00;99639.16;5589495;31;34338;-68
2023/08/27 01:33:28;;;;;;;10.35;5.32;;;;;;;24.53;100.00;99635.34;5590316;31;33742;-67
2023/08/27 01:36:34;;;;;;;14.05;5.95;;;;;;;24.37;100.00;99631.88;5590393;31;34722;-67
2023/08/27 01:39:37;;;;;;;15.10;5.65;;;;;;;24.25;100.00;99631.38;5589883;31;34497;-67
2023/08/27 01:42:40;;;;;;;13.77;5.97;;;;;;;24.12;100.00;99631.91;5590687;31;33756;-67
2023/08/27 01:45:42;;;;;;;15.20;5.68;;;;;;;24.04;100.00;99619.72;5590061;31;34772;-68
2023/08/27 01:48:46;;;;;;;13.35;5.75;;;;;;;24.02;100.00;99634.63;5590371;31;34443;-67
2023/08/27 01:51:48;;;;;;;11.63;5.62;;;;;;;23.93;100.00;99636.25;5590384;31;33742;-67
2023/08/27 01:54:52;;;;;;;12.45;5.85;;;;;;;23.85;100.00;99636.81;5590254;31;33773;-67
2023/08/27 01:57:54;;;;;;;15.65;5.78;;;;;;;23.83;100.00;99626.25;5590101;31;33793;-67
2023/08/27 02:00:57;;;;;;;12.98;5.43;;;;;;;23.87;100.00;99621.91;5590565;31;34388;-66
2023/08/27 02:04:00;;;;;;;10.35;5.93;;;;;;;23.81;100.00;99625.72;5590029;31;34506;-67
2023/08/27 02:07:03;;;;;;;14.95;6.32;;;;;;;23.75;100.00;99634.94;5590073;31;33932;-67
2023/08/27 02:10:07;;;;;;;11.90;6.07;;;;;;;23.70;100.00;99638.47;5590477;31;34556;-68
2023/08/27 02:13:10;;;;;;;18.15;6.18;;;;;;;23.61;100.00;99650.94;5590090;31;33847;-67
2023/08/27 02:16:14;;;;;;;12.85;6.03;;;;;;;23.60;100.00;99648.47;5590097;31;33843;-68
2023/08/27 02:19:16;;;;;;;12.55;6.00;;;;;;;23.75;100.00;99649.28;5590016;31;34749;-68
2023/08/27 02:22:19;;;;;;;9.98;5.72;;;;;;;23.69;100.00;99649.56;5590033;31;33713;-68
2023/08/27 02:25:22;;;;;;;12.68;6.25;;;;;;;23.65;100.00;99649.28;5590062;31;33967;-67
2023/08/27 02:28:26;;;;;;;10.30;6.45;;;;;;;23.60;100.00;99646.59;5589912;31;33822;-67
2023/08/27 02:31:29;;;;;;;12.63;6.62;;;;;;;23.58;100.00;99651.44;5589971;31;33848;-68
2023/08/27 02:34:31;;;;;;;14.95;7.12;;;;;;;23.70;100.00;99653.91;5589178;31;34466;-68
2023/08/27 02:37:34;;;;;;;14.23;7.47;;;;;;;23.97;100.00;99643.56;5589754;31;33721;-69
2023/08/27 02:40:39;;;;;;;15.00;6.93;;;;;;;24.11;100.00;99647.34;5588985;31;33844;-68
2023/08/27 02:43:42;;;;;;;15.65;6.93;;;;;;;24.24;100.00;99640.59;5589795;31;33706;-69
2023/08/27 02:46:44;;;;;;;12.68;6.93;;;;;;;24.15;100.00;99637.59;5588974;31;34384;-68
2023/08/27 02:49:49;;;;;;;11.48;6.87;;;;;;;24.14;100.00;99638.69;5589848;31;33760;-68
2023/08/27 02:52:52;;;;;;;9.95;6.68;;;;;;;24.02;100.00;99632.72;5589818;31;33814;-68
2023/08/27 02:55:55;;;;;;;10.35;6.43;;;;;;;23.87;100.00;99640.09;5589705;31;33898;-70
2023/08/27 02:58:57;;;;;;;10.48;5.85;;;;;;;23.85;100.00;99643.06;5589934;31;33749;-69
2023/08/27 03:02:01;;;;;;;15.35;6.30;;;;;;;23.73;100.00;99658.75;5589669;31;33814;-68
2023/08/27 03:05:04;;;;;;;10.63;6.00;;;;;;;23.74;100.00;99646.84;5589601;31;34497;-68
2023/08/27 03:08:07;;;;;;;13.25;5.90;;;;;;;23.58;100.00;99639.81;5589502;31;34034;-68
2023/08/27 03:11:10;;;;;;;9.32;5.30;;;;;;;23.55;100.00;99645.78;5589525;31;34879;-67
2023/08/27 03:14:13;;;;;;;8.10;4.50;;;;;;;23.43;100.00;99645.22;5589540;31;33852;-67
2023/08/27 03:17:15;;;;;;;9.63;5.45;;;;;;;23.34;100.00;99644.91;5589470;31;33705;-68
2023/08/27 03:20:18;;;;;;;10.63;4.90;;;;;;;23.29;100.00;99639.47;5589470;31;32902;-68
2023/08/27 03:23:21;;;;;;;6.37;4.85;;;;;;;23.22;100.00;99649.78;5589448;31;33926;-68
2023/08/27 03:26:24;;;;;;;6.45;4.72;;;;;;;23.12;100.00;99649.75;5589373;31;34133;-67
2023/08/27 03:29:29;;;;;;;8.70;4.57;;;;;;;23.00;100.00;99655.38;5589364;31;33865;-68
2023/08/27 03:32:32;;;;;;;6.47;4.25;;;;;;;23.02;100.00;99655.94;5589362;31;33783;-68
2023/08/27 03:35:35;;;;;;;8.07;4.62;;;;;;;22.87;100.00;99658.59;5589346;31;33926;-69
2023/08/27 03:38:38;;;;;;;8.68;4.43;;;;;;;22.89;100.00;99661.88;5589277;31;34690;-67
2023/08/27 03:41:41;;;;;;;6.87;4.07;;;;;;;22.73;100.00;99671.00;5589116;31;33881;-68
2023/08/27 03:44:44;;;;;;;10.88;3.97;;;;;;;22.70;100.00;99672.34;5588170;31;33818;-68
2023/08/27 03:47:47;;;;;;;4.80;3.80;;;;;;;22.64;100.00;99675.25;5588378;31;34439;-66
2023/08/27 03:50:50;;;;;;;7.15;3.78;;;;;;;22.57;100.00;99677.38;5588424;31;33861;-68
2023/08/27 03:53:52;;;;;;;6.32;3.90;;;;;;;22.52;100.00;99678.16;5588409;31;33790;-69
2023/08/27 03:56:56;;;;;;;6.15;3.70;;;;;;;22.45;100.00;99681.13;5588953;31;33910;-69
2023/08/27 03:59:58;;;;;;;7.05;3.62;;;;;;;22.40;100.00;99677.56;5589016;31;33925;-68
2023/08/27 04:03:02;;;;;;;5.07;3.53;;;;;;;22.41;100.00;99685.41;5588112;31;33838;-68
2023/08/27 04:06:10;;;;;;;7.53;3.40;;;;;;;22.28;100.00;99683.16;5588775;31;34771;-68
2023/08/27 04:09:12;;;;;;;5.40;3.58;;;;;;;22.32;100.00;99686.16;5588772;31;33723;-68
2023/08/27 04:12:16;;;;;;;5.82;3.30;;;;;;;22.22;100.00;99695.00;5588672;31;34060;-68
2023/08/27 04:15:18;;;;;;;6.43;3.12;;;;;;;22.18;100.00;99687.69;5588999;31;34600;-68
2023/08/27 04:18:22;;;;;;;5.40;3.00;;;;;;;22.13;100.00;99701.97;5588992;31;33765;-68
2023/08/27 04:21:25;;;;;;;7.50;3.22;;;;;;;22.03;100.00;99705.41;5588499;31;34821;-68
2023/08/27 04:24:28;;;;;;;4.47;2.78;;;;;;;22.06;100.00;99713.03;5588507;31;33805;-68
2023/08/27 04:27:31;;;;;;;5.32;3.00;;;;;;;22.06;100.00;99712.19;5588501;31;33810;-68
2023/08/27 04:30:34;;;;;;;7.37;2.70;;;;;;;22.07;100.00;99713.84;5588742;31;34421;-68
2023/08/27 04:33:37;;;;;;;6.45;2.53;;;;;;;21.98;100.00;99704.56;5588252;31;34743;-70
2023/08/27 04:36:40;;;;;;;6.22;2.70;;;;;;;22.05;100.00;99700.56;5588355;31;34831;-68
2023/08/27 04:39:42;;;;;;;4.93;2.83;;;;;;;21.95;100.00;99694.28;5587458;31;33726;-69
2023/08/27 04:42:45;;;;;;;4.93;2.83;;;;;;;22.02;100.00;99705.69;5588180;31;33831;-69
2023/08/27 04:45:48;;;;;;;8.55;2.90;;;;;;;22.04;100.00;99708.94;5588032;31;33781;-68
2023/08/27 04:48:52;;;;;;;4.10;2.70;;;;;;;21.93;100.00;99701.81;5588128;31;33985;-69
2023/08/27 04:51:55;;;;;;;4.28;2.80;;;;;;;21.92;100.00;99700.19;5588024;31;34423;-69
2023/08/27 04:54:58;;;;;;;3.37;2.70;;;;;;;22.04;100.00;99700.81;5587535;31;33845;-68
2023/08/27 04:58:01;;;;;;;4.10;2.83;;;;;;;22.09;100.00;99703.56;5587870;31;34742;-69
2023/08/27 05:01:04;;;;;;;8.23;3.15;;;;;;;22.15;100.00;99699.84;5587270;31;33720;-70
2023/08/27 05:04:06;;;;;;;5.47;3.10;;;;;;;22.10;100.00;99697.91;5587728;31;34743;-68
2023/08/27 05:07:10;;;;;;;7.75;3.42;;;;;;;22.09;100.00;99708.97;5590516;31;33841;-69
2023/08/27 05:10:13;;;;;;;5.72;2.78;;;;;;;22.21;100.00;99708.78;5590647;31;33912;-68
2023/08/27 05:13:16;;;;;;;3.90;2.78;;;;;;;22.23;100.00;99712.03;5590042;31;33848;-69
2023/08/27 05:16:19;;;;;;;5.55;2.85;;;;;;;22.28;100.00;99712.88;5590939;31;34383;-68
2023/08/27 05:19:22;;;;;;;10.43;2.67;;;;;;;22.33;100.00;99723.72;5590528;31;33787;-69
2023/08/27 05:22:25;;;;;;;4.97;2.62;;;;;;;22.40;100.00;99735.13;5590269;31;33800;-68
2023/08/27 05:25:28;;;;;;;3.25;2.47;;;;;;;22.49;100.00;99740.88;5590390;31;33820;-68
2023/08/27 05:28:31;;;;;;;6.78;2.50;;;;;;;22.67;100.00;99732.31;5590372;31;33741;-68
2023/08/27 05:31:34;;;;;;;5.87;2.70;;;;;;;22.68;100.00;99728.53;5590280;31;33779;-68
2023/08/27 05:34:37;;;;;;;7.57;2.80;;;;;;;22.86;100.00;99724.59;5590252;31;34827;-68
2023/08/27 05:37:41;;;;;;;7.45;3.40;;;;;;;22.92;100.00;99723.53;5590294;31;33813;-68
2023/08/27 05:40:44;;;;;;;10.70;3.15;;;;;;;22.93;100.00;99711.66;5590300;31;34462;-68
2023/08/27 05:43:47;;;;;;;5.80;3.00;;;;;;;22.87;100.00;99705.41;5589946;31;33779;-68
2023/08/27 05:46:50;;;;;;;5.25;2.90;;;;;;;23.01;100.00;99703.00;5590589;31;33701;-68
2023/08/27 05:49:54;;;;;;;8.05;3.20;;;;;;;23.18;100.00;99703.63;5589484;31;34779;-68
2023/08/27 05:52:57;;;;;;;7.55;3.33;;;;;;;23.10;100.00;99708.72;5590192;31;33934;-68
2023/08/27 05:56:00;;;;;;;5.87;2.97;;;;;;;23.09;100.00;99718.72;5590166;31;33704;-69
2023/08/27 05:59:03;;;;;;;7.07;3.35;;;;;;;23.36;100.00;99721.25;5590381;31;34491;-68
2023/08/27 06:02:07;;;;;;;6.97;3.33;;;;;;;23.20;100.00;99719.56;5589947;31;34533;-68
2023/08/27 06:05:11;;;;;;;6.25;3.10;;;;;;;23.31;100.00;99722.06;5590323;31;33739;-70
2023/08/27 06:08:15;;;;;;;7.72;3.12;;;;;;;23.36;100.00;99726.66;5590341;31;33802;-68
2023/08/27 06:11:18;;;;;;;4.40;3.05;;;;;;;23.33;100.00;99719.87;5589972;31;33940;-68
2023/08/27 06:14:21;;;;;;;4.30;3.20;;;;;;;23.43;100.00;99702.84;5590355;31;33731;-68
2023/08/27 06:17:24;;;;;;;4.80;3.10;;;;;;;23.69;100.00;99707.25;5589629;31;34382;-68
2023/08/27 06:20:27;;;;;;;10.48;5.22;;;;;;;24.03;100.00;99707.53;5589896;31;33758;-68
2023/08/27 06:23:30;;;;;;;8.80;4.40;;;;;;;23.93;100.00;99696.69;5589999;31;34859;-68
2023/08/27 06:26:33;;;;;;;7.25;5.00;;;;;;;24.02;100.00;99692.34;5590077;31;34831;-68
2023/08/27 06:29:36;;;;;;;7.78;5.50;;;;;;;24.20;100.00;99691.84;5589882;31;33831;-68
2023/08/27 06:32:38;;;;;;;9.27;4.75;;;;;;;24.24;100.00;99689.37;5590133;31;33786;-68
2023/08/27 06:35:42;;;;;;;8.70;4.60;;;;;;;24.61;100.00;99700.66;5589826;31;33751;-68
2023/08/27 06:38:45;;;;;;;9.40;4.43;;;;;;;24.87;100.00;99700.59;5589838;31;33640;-69
2023/08/27 06:41:48;;;;;;;7.93;4.72;;;;;;;25.07;100.00;99695.09;5589096;31;33757;-67
2023/08/27 06:44:53;;;;;;;8.13;4.60;;;;;;;24.96;100.00;99686.19;5589705;31;33905;-69
2023/08/27 06:47:57;;;;;;;8.55;4.78;;;;;;;25.17;100.00;99688.78;5589592;31;33710;-68
2023/08/27 06:51:00;;;;;;;9.20;4.80;;;;;;;25.68;100.00;99689.28;5589334;31;34462;-67
2023/08/27 06:54:04;;;;;;;11.43;6.45;;;;;;;25.97;100.00;99695.56;5589500;31;34444;-67
2023/08/27 06:57:08;;;;;;;7.22;4.50;;;;;;;26.89;100.00;99703.63;5589930;31;33889;-68
2023/08/27 07:00:11;;;;;;;9.18;4.60;;;;;;;27.82;100.00;99695.50;5588804;31;33681;-68
2023/08/27 07:03:14;;;;;;;11.88;4.93;;;;;;;28.36;97.54;99685.84;5589076;31;33834;-68
2023/08/27 07:06:17;;;;;;;9.68;4.55;;;;;;;28.43;98.64;99689.78;5588523;31;33875;-69
2023/08/27 07:09:22;;;;;;;8.38;5.15;;;;;;;29.06;91.58;99690.97;5589516;31;33936;-69
2023/08/27 07:12:25;;;;;;;8.57;4.50;;;;;;;29.69;84.05;99693.66;5588608;31;33793;-69
2023/08/27 07:15:28;;;;;;;6.40;4.10;;;;;;;29.54;83.00;99691.28;5589147;31;33932;-69
2023/08/27 07:18:30;;;;;;;12.35;4.65;;;;;;;29.56;84.16;99698.06;5589251;31;33758;-68
2023/08/27 07:21:33;;;;;;;13.02;4.78;;;;;;;30.25;80.18;99704.03;5588025;31;33260;-68
2023/08/27 07:24:36;;;;;;;7.68;4.87;;;;;;;31.25;70.74;99707.78;5588945;31;33205;-69
2023/08/27 07:27:39;;;;;;;11.85;4.80;;;;;;;31.14;70.35;99702.94;5587709;31;34746;-70
2023/08/27 07:30:42;;;;;;;8.55;4.82;;;;;;;31.80;69.22;99705.25;5588838;31;32965;-69
2023/08/27 07:33:45;;;;;;;8.52;4.70;;;;;;;32.13;65.50;99704.72;5587877;31;33860;-69
2023/08/27 07:36:48;;;;;;;8.98;5.25;;;;;;;32.61;63.08;99696.16;5588378;31;34588;-70
2023/08/27 07:39:51;;;;;;;7.68;4.37;;;;;;;32.48;63.52;99691.69;5588635;31;34477;-69
2023/08/27 07:42:54;;;;;;;9.73;4.82;;;;;;;32.20;64.93;99681.13;5588328;31;33845;-70
2023/08/27 07:45:56;;;;;;;9.23;4.60;;;;;;;32.50;64.29;99681.97;5580963;31;255027;-70
2023/08/27 07:48:59;;;;;;;10.35;4.70;;;;;;;32.83;62.69;99675.84;5588708;31;33818;-70
2023/08/27 07:52:02;;;;;;;7.18;5.00;;;;;;;33.54;59.83;99679.41;5588697;31;33904;-70
2023/08/27 07:55:06;;;;;;;7.62;4.60;;;;;;;34.02;57.15;99681.56;5588720;31;33741;-70
2023/08/27 07:58:08;;;;;;;12.10;5.18;;;;;;;33.46;58.96;99667.34;5587701;31;34437;-70
2023/08/27 08:01:11;;;;;;;11.30;4.80;;;;;;;33.80;58.07;99660.72;5588700;31;33685;-70
2023/08/27 08:04:14;;;;;;;13.45;5.35;;;;;;;33.93;56.60;99658.84;5588558;31;34405;-70
2023/08/27 08:07:17;;;;;;;7.37;5.47;;;;;;;34.41;55.31;99661.69;5589001;31;33784;-70
2023/08/27 08:10:23;;;;;;;11.60;5.03;;;;;;;35.05;51.73;99654.66;5588241;31;33871;-70
2023/08/27 08:13:26;;;;;;;17.23;5.53;;;;;;;35.31;51.69;99655.88;5588391;31;33741;-70
2023/08/27 08:16:29;;;;;;;9.55;5.62;;;;;;;35.64;53.31;99657.56;5587681;31;33824;-70
2023/08/27 08:19:31;;;;;;;10.73;5.90;;;;;;;35.53;49.51;99653.75;5588245;31;33754;-70
2023/08/27 08:22:34;;;;;;;8.55;5.35;;;;;;;36.42;47.70;99651.37;5588300;31;33724;-70
2023/08/27 08:25:37;;;;;;;11.60;5.50;;;;;;;37.23;45.14;99650.53;5588114;31;33932;-70
2023/08/27 08:28:40;;;;;;;10.77;5.45;;;;;;;37.18;46.15;99653.59;5587942;31;33880;-70
2023/08/27 08:31:43;;;;;;;13.20;5.50;;;;;;;37.49;45.16;99649.09;5588016;31;33797;-70
2023/08/27 08:34:46;;;;;;;8.35;5.40;;;;;;;36.94;45.03;99637.22;5588254;31;33726;-70
2023/08/27 08:37:48;;;;;;;8.27;5.35;;;;;;;37.68;42.85;99638.03;5587830;31;33799;-71
2023/08/27 08:40:57;;;;;;;8.35;5.37;;;;;;;37.52;43.57;99645.59;5589560;31;34841;-70
2023/08/27 08:44:21;;;;;;;10.68;5.50;;;;;;;37.85;41.78;99641.13;5589550;31;34534;-70
2023/08/27 08:47:25;;;;;;;9.48;5.20;;;;;;;37.97;42.52;99642.13;5590493;31;34409;-72
2023/08/27 08:50:32;;;;;;;6.62;5.07;;;;;;;38.65;41.76;99642.13;5590491;31;35188;-71
2023/08/27 08:53:44;;;;;;;9.95;5.12;;;;;;;39.81;37.62;99653.97;5590527;31;33772;-70
2023/08/27 08:56:53;;;;;;;6.53;5.03;;;;;;;39.18;39.45;99647.62;5590007;31;33840;-72
2023/08/27 08:59:56;;;;;;;13.18;5.70;;;;;;;39.04;39.67;99649.03;5589501;31;33714;-71
2023/08/27 09:03:02;;;;;;;11.18;5.72;;;;;;;38.23;40.07;99639.44;5590129;31;34426;-70
2023/08/27 09:06:05;;;;;;;9.65;5.90;;;;;;;38.44;39.97;99642.56;5590314;31;33847;-71
2023/08/27 09:09:10;;;;;;;10.88;5.95;;;;;;;38.58;38.73;99642.81;5590450;31;34583;-70
2023/08/27 09:12:15;;;;;;;10.38;5.70;;;;;;;39.22;38.21;99640.94;5590180;31;33862;-70
2023/08/27 09:15:20;;;;;;;11.10;5.93;;;;;;;39.15;37.81;99640.88;5590627;31;34527;-70
2023/08/27 09:18:23;;;;;;;10.32;5.55;;;;;;;40.46;35.95;99633.16;5590279;31;34012;-70
2023/08/27 09:21:26;;;;;;;9.75;5.68;;;;;;;39.90;34.28;99632.25;5590072;31;34381;-70
2023/08/27 09:24:29;;;;;;;7.57;5.65;;;;;;;40.10;34.54;99626.47;5590080;31;34721;-71
2023/08/27 09:27:32;;;;;;;10.20;5.47;;;;;;;39.71;34.06;99628.84;5590246;31;33746;-71
2023/08/27 09:30:35;;;;;;;9.82;6.07;;;;;;;38.40;37.31;99615.94;5590290;31;33798;-71
2023/08/27 09:33:40;;;;;;;10.68;5.95;;;;;;;36.70;39.18;99612.63;5590296;31;33662;-71
2023/08/27 09:36:43;;;;;;;12.40;5.90;;;;;;;35.47;41.60;99619.28;5590195;31;33977;-71
2023/08/27 09:39:49;;;;;;;10.88;6.15;;;;;;;36.46;40.82;99606.09;5590393;31;33683;-71
2023/08/27 09:43:04;;;;;;;8.85;6.00;;;;;;;37.32;38.44;99608.84;5589474;31;33775;-71
2023/08/27 09:46:10;;;;;;;8.80;6.43;;;;;;;38.05;37.15;99600.38;5590288;31;35011;-71
2023/08/27 09:49:13;;;;;;;9.10;6.12;;;;;;;39.29;34.46;99602.19;5590316;31;33722;-71
2023/08/27 09:52:23;;;;;;;10.73;6.32;;;;;;;39.03;35.39;99600.28;5589664;31;34408;-71
2023/08/27 09:55:31;;;;;;;13.57;6.37;;;;;;;38.15;36.73;99599.72;5590162;31;34448;-70
2023/08/27 09:58:38;;;;;;;9.55;6.30;;;;;;;38.70;35.79;99600.19;5589985;31;33824;-70
2023/08/27 10:01:46;;;;;;;12.13;6.37;;;;;;;37.04;38.83;99605.47;5589964;31;33753;-70
2023/08/27 10:04:51;;;;;;;12.52;6.90;;;;;;;35.64;41.77;99596.87;5589953;31;33778;-71
2023/08/27 10:08:02;;;;;;;14.00;6.75;;;;;;;34.45;43.77;99598.44;5589325;31;34691;-70
2023/08/27 10:11:09;;;;;;;14.20;7.03;;;;;;;34.05;44.13;99598.28;5590025;31;33548;-70
2023/08/27 10:14:13;;;;;;;11.57;6.93;;;;;;;33.51;45.79;99597.56;5589906;31;33825;-70
2023/08/27 10:17:16;;;;;;;10.30;6.75;;;;;;;33.40;47.56;99596.41;5589767;31;34411;-69
2023/08/27 10:20:20;;;;;;;12.40;7.70;;;;;;;33.01;47.82;99589.44;5589203;31;34570;-70
2023/08/27 10:23:24;;;;;;;10.05;6.87;;;;;;;32.93;48.56;99593.84;5589645;31;33760;-69
2023/08/27 10:26:28;;;;;;;11.85;7.70;;;;;;;32.99;48.45;99588.94;5589907;31;33728;-69
2023/08/27 10:29:40;;;;;;;9.75;7.43;;;;;;;33.00;48.09;99574.87;5589830;31;33709;-71
2023/08/27 10:32:43;;;;;;;13.62;7.50;;;;;;;33.33;47.74;99574.94;5588672;31;33904;-71
2023/08/27 10:35:49;;;;;;;13.75;7.60;;;;;;;33.35;49.12;99569.91;5588972;31;34368;-69
2023/08/27 10:38:53;;;;;;;13.85;7.18;;;;;;;33.50;48.72;99560.22;5589664;31;34908;-69
2023/08/27 10:41:57;;;;;;;9.73;6.97;;;;;;;33.78;45.81;99558.47;5589757;31;33724;-68
2023/08/27 10:45:09;;;;;;;10.40;7.05;;;;;;;35.78;41.75;99566.91;5589470;31;33805;-70
2023/08/27 10:48:23;;;;;;;10.15;6.80;;;;;;;38.02;38.00;99569.81;5589759;31;33822;-70
2023/08/27 10:51:32;;;;;;;11.48;6.47;;;;;;;39.93;33.83;99564.03;5589653;31;34598;-71
2023/08/27 10:54:38;;;;;;;17.70;6.82;;;;;;;40.99;32.31;99569.50;5589631;31;34586;-70
2023/08/27 10:57:40;;;;;;;9.13;5.90;;;;;;;41.51;31.37;99560.56;5589600;31;33862;-70
2023/08/27 11:01:03;;;;;;;8.90;6.40;;;;;;;42.14;30.60;99550.69;5589446;31;35037;-71
2023/08/27 11:04:06;;;;;;;10.10;6.30;;;;;;;43.83;28.49;99551.19;5588073;31;34531;-71
2023/08/27 11:07:11;;;;;;;11.70;6.10;;;;;;;43.56;28.14;99548.22;5589445;31;34493;-71
2023/08/27 11:10:16;;;;;;;10.27;6.03;;;;;;;42.38;28.78;99529.56;5589595;31;34561;-70
2023/08/27 11:13:38;;;;;;;10.40;6.05;;;;;;;43.35;27.53;99539.94;5589589;31;33954;-70
2023/08/27 11:16:48;;;;;;;11.68;6.00;;;;;;;44.84;25.89;99552.63;5589398;31;33979;-69
2023/08/27 11:19:51;;;;;;;10.68;6.18;;;;;;;46.09;24.23;99560.88;5588623;31;34570;-71
2023/08/27 11:22:59;;;;;;;10.15;5.72;;;;;;;44.08;26.41;99543.44;5589235;31;34485;-71
2023/08/27 11:26:03;;;;;;;11.65;5.80;;;;;;;43.24;26.78;99540.00;5589564;31;33875;-70
2023/08/27 11:29:10;;;;;;;11.90;5.53;;;;;;;43.76;25.99;99556.88;5589289;31;33908;-70
2023/08/27 11:32:13;;;;;;;8.27;5.32;;;;;;;44.80;24.68;99549.09;5588564;31;33845;-71
2023/08/27 11:35:22;;;;;;;10.20;5.53;;;;;;;44.41;26.28;99555.09;5589340;31;34103;-71
2023/08/27 11:38:25;;;;;;;8.68;5.47;;;;;;;44.41;25.26;99546.72;5589398;31;33789;-71
2023/08/27 11:41:36;;;;;;;11.35;5.65;;;;;;;44.14;26.16;99540.97;5589201;31;33809;-71
2023/08/27 11:45:06;;;;;;;9.00;5.65;;;;;;;44.76;25.43;99546.34;5588107;31;33776;-71
2023/08/27 11:48:09;;;;;;;13.05;5.75;;;;;;;44.11;26.10;99539.78;5587074;31;33734;-70
2023/08/27 11:51:13;;;;;;;18.02;5.80;;;;;;;45.47;24.51;99539.00;5588383;31;33993;-71
2023/08/27 11:54:17;;;;;;;12.52;5.53;;;;;;;46.76;23.43;99537.16;5587245;31;35022;-71
2023/08/27 11:57:20;;;;;;;10.13;5.82;;;;;;;48.13;22.56;99542.84;5587805;31;33881;-72
2023/08/27 12:00:23;;;;;;;10.15;5.43;;;;;;;47.44;21.89;99528.09;5588776;31;34654;-71
2023/08/27 12:03:26;;;;;;;13.70;5.70;;;;;;;46.79;23.04;99530.69;5588759;31;33816;-71
2023/08/27 12:06:30;;;;;;;11.70;5.20;;;;;;;46.45;23.43;99524.53;5588578;31;34623;-71
2023/08/27 12:09:33;;;;;;;6.07;5.10;;;;;;;45.45;25.25;99522.66;5588693;31;33891;-71
2023/08/27 12:12:39;;;;;;;9.90;5.55;;;;;;;47.73;21.93;99523.38;5588692;31;33927;-71
2023/08/27 12:15:43;;;;;;;8.70;5.20;;;;;;;48.73;21.37;99529.97;5590295;31;33778;-71
2023/08/27 12:18:49;;;;;;;11.23;5.87;;;;;;;47.24;21.45;99519.69;5590308;31;33877;-71
2023/08/27 12:21:53;;;;;;;10.77;5.50;;;;;;;46.63;21.47;99514.56;5591219;31;33802;-71
2023/08/27 12:25:00;;;;;;;10.60;5.60;;;;;;;47.21;21.60;99514.13;5590904;31;33924;-68
2023/08/27 12:28:03;;;;;;;;;;;;;;;46.71;21.71;99514.44;5591285;31;34453;-71
2023/08/27 12:31:06;;;;;;;11.10;5.78;;;;;;;46.44;21.87;99515.31;5591032;31;34085;-70
2023/08/27 12:34:09;;;;;;;12.23;5.97;;;;;;;45.58;22.33;99504.03;5590916;31;33775;-70
2023/08/27 12:37:13;;;;;;;12.37;5.75;;;;;;;46.10;22.25;99503.53;5590016;31;35463;-72
2023/08/27 12:40:16;;;;;;;9.88;5.80;;;;;;;46.88;22.04;99502.00;5590713;31;34036;-70
2023/08/27 12:43:18;;;;;;;8.30;6.05;;;;;;;46.28;22.17;99501.22;5590049;31;34442;-69
2023/08/27 12:46:23;;;;;;;9.82;5.60;;;;;;;46.89;22.41;99501.62;5590417;31;33796;-70
2023/08/27 12:49:26;;;;;;;10.65;6.65;;;;;;;48.20;21.06;99495.63;5591098;31;33869;-70
2023/08/27 12:52:29;;;;;;;10.43;6.70;;;;;;;48.75;20.04;99499.34;5590101;31;34443;-70
2023/08/27 12:55:31;;;;;;;16.15;6.68;;;;;;;48.41;20.71;99491.47;5590753;31;34006;-71
2023/08/27 12:58:34;;;;;;;9.15;6.10;;;;;;;47.10;21.50;99489.13;5590427;31;34005;-72
2023/08/27 13:01:39;;;;;;;12.18;5.97;;;;;;;47.47;21.25;99476.59;5590941;31;35311;-72
2023/08/27 13:04:42;;;;;;;11.85;6.00;;;;;;;47.47;21.15;99480.22;5589834;31;34502;-72
2023/08/27 13:07:44;;;;;;;11.32;6.10;;;;;;;46.54;21.90;99477.06;5590575;31;34091;-70
2023/08/27 13:10:47;;;;;;;12.45;5.62;;;;;;;45.89;22.41;99470.28;5590723;31;34606;-71
2023/08/27 13:13:51;;;;;;;11.20;6.00;;;;;;;46.53;22.18;99467.87;5590654;31;33832;-71
2023/08/27 13:16:54;;;;;;;9.40;6.03;;;;;;;46.26;22.32;99464.41;5589839;31;33814;-70
2023/08/27 13:19:57;;;;;;;15.02;6.03;;;;;;;48.22;20.41;99467.06;5589516;31;34937;-70
2023/08/27 13:22:59;;;;;;;10.10;6.18;;;;;;;47.78;20.44;99463.00;5589241;31;33836;-72
2023/08/27 13:26:03;;;;;;;10.30;5.68;;;;;;;46.92;20.96;99460.63;5589701;31;33888;-71
2023/08/27 13:29:06;;;;;;;10.63;6.30;;;;;;;47.78;20.52;99458.19;5590540;31;34720;-70
2023/08/27 13:32:09;;;;;;;10.88;6.15;;;;;;;47.51;20.40;99449.19;5590495;31;33750;-71
2023/08/27 13:35:11;;;;;;;8.55;6.28;;;;;;;47.43;20.48;99445.00;5590408;31;34461;-72
2023/08/27 13:38:14;;;;;;;11.27;6.35;;;;;;;47.39;20.67;99441.50;5590194;31;34128;-70
2023/08/27 13:41:17;;;;;;;10.77;6.00;;;;;;;48.14;20.22;99445.97;5590302;31;33899;-70
2023/08/27 13:44:20;;;;;;;11.25;6.12;;;;;;;50.22;18.81;99443.34;5590310;31;35015;-70
2023/08/27 13:47:23;;;;;;;9.45;6.20;;;;;;;50.28;17.85;99444.34;5590323;31;33795;-71
2023/08/27 13:50:26;;;;;;;12.95;6.12;;;;;;;49.42;19.36;99434.47;5590238;31;35243;-70
2023/08/27 13:53:29;;;;;;;13.05;6.20;;;;;;;48.25;19.37;99426.78;5589384;31;33926;-71
2023/08/27 13:56:32;;;;;;;9.00;6.00;;;;;;;48.77;18.32;99432.88;5590019;31;33842;-70
2023/08/27 13:59:35;;;;;;;8.30;6.10;;;;;;;48.60;18.44;99427.78;5590045;31;33731;-71
2023/08/27 14:02:37;;;;;;;13.48;6.90;;;;;;;47.78;19.34;99423.66;5590422;31;33947;-69
2023/08/27 14:05:41;;;;;;;10.52;6.43;;;;;;;47.38;19.58;99423.84;5589165;31;33913;-70
2023/08/27 14:08:44;;;;;;;12.93;6.35;;;;;;;47.00;20.06;99420.75;5589700;31;33974;-71
2023/08/27 14:11:48;;;;;;;8.35;6.25;;;;;;;45.55;20.64;99408.81;5589874;31;34512;-70
2023/08/27 14:14:51;;;;;;;12.02;6.43;;;;;;;43.14;23.71;99400.47;5589971;31;33810;-70